createdAt,value
2019-03-19T00:00:37.135Z,64.51
2019-03-19T00:03:06.678Z,64.63
2019-03-19T00:05:36.209Z,64.07
2019-03-19T00:08:05.753Z,62.50
2019-03-19T00:10:35.277Z,62.40
2019-03-19T00:13:04.823Z,62.18
2019-03-19T00:15:34.355Z,61.56
2019-03-19T00:18:03.971Z,61.24
2019-03-19T00:20:33.497Z,61.45
2019-03-19T00:23:03.030Z,62.02
2019-03-19T00:25:32.561Z,62.36
2019-03-19T00:28:02.138Z,62.83
2019-03-19T00:30:31.655Z,63.35
2019-03-19T00:33:01.183Z,63.30
2019-03-19T00:35:30.726Z,63.71
2019-03-19T00:38:00.253Z,63.53
2019-03-19T00:40:29.786Z,63.93
2019-03-19T00:42:59.341Z,64.45
2019-03-19T00:45:28.881Z,64.50
2019-03-19T00:47:58.407Z,63.24
2019-03-19T00:50:27.946Z,62.57
2019-03-19T00:52:57.460Z,62.59
2019-03-19T00:55:27.004Z,62.76
2019-03-19T00:57:56.629Z,63.18
2019-03-19T01:00:26.205Z,62.98
2019-03-19T01:02:55.728Z,63.97
2019-03-19T01:05:25.270Z,64.10
2019-03-19T01:07:54.925Z,65.06
2019-03-19T01:10:24.450Z,65.25
2019-03-19T01:12:53.972Z,65.80
2019-03-19T01:15:23.541Z,66.72
2019-03-19T01:17:53.062Z,67.37
2019-03-19T01:20:22.603Z,67.58
2019-03-19T01:22:52.136Z,68.07
2019-03-19T01:25:21.677Z,68.57
2019-03-19T01:27:51.205Z,70.12
2019-03-19T01:30:20.759Z,70.04
2019-03-19T01:32:50.309Z,70.05
2019-03-19T01:35:19.860Z,70.34
2019-03-19T01:37:49.399Z,70.21
2019-03-19T01:40:19.079Z,69.63
2019-03-19T01:42:48.598Z,69.93
2019-03-19T01:45:18.132Z,69.73
2019-03-19T01:47:47.655Z,69.24
2019-03-19T01:50:17.213Z,69.09
2019-03-19T01:52:46.751Z,69.12
2019-03-19T01:55:16.300Z,69.03
2019-03-19T01:57:45.839Z,68.85
2019-03-19T02:00:15.482Z,69.19
2019-03-19T02:02:45.021Z,68.83
2019-03-19T02:05:14.707Z,68.99
2019-03-19T02:07:44.236Z,69.48
2019-03-19T02:10:13.786Z,69.52
2019-03-19T02:12:43.323Z,69.25
2019-03-19T02:15:13.228Z,69.24
2019-03-19T02:17:42.745Z,69.10
2019-03-19T02:20:12.789Z,69.53
2019-03-19T02:22:42.374Z,69.88
2019-03-19T02:25:11.994Z,69.75
2019-03-19T02:27:41.522Z,70.40
2019-03-19T02:30:11.621Z,71.06
2019-03-19T02:32:41.161Z,70.67
2019-03-19T02:35:10.808Z,71.14
2019-03-19T02:37:40.311Z,70.60
2019-03-19T02:40:10.045Z,70.64
2019-03-19T02:42:39.581Z,70.83
2019-03-19T02:45:09.418Z,71.33
2019-03-19T02:47:38.949Z,70.27
2019-03-19T02:50:09.236Z,70.26
2019-03-19T02:52:38.789Z,69.11
2019-03-19T02:55:08.891Z,68.56
2019-03-19T02:57:38.432Z,68.91
2019-03-19T03:00:08.491Z,69.28
2019-03-19T03:02:38.023Z,69.50
2019-03-19T03:05:08.234Z,70.39
2019-03-19T03:07:37.770Z,70.39
2019-03-19T03:10:08.075Z,71.08
2019-03-19T03:12:37.645Z,71.56
2019-03-19T03:15:07.601Z,71.96
2019-03-19T03:17:37.206Z,73.22
2019-03-19T03:20:06.984Z,73.72
2019-03-19T03:22:36.535Z,74.76
2019-03-19T03:25:06.622Z,75.18
2019-03-19T03:27:36.166Z,76.25
2019-03-19T03:30:06.191Z,75.70
2019-03-19T03:32:35.730Z,77.15
2019-03-19T03:35:05.642Z,76.63
2019-03-19T03:37:35.179Z,76.09
2019-03-19T03:40:05.052Z,76.06
2019-03-19T03:42:34.591Z,76.06
2019-03-19T03:45:04.200Z,75.60
2019-03-19T03:47:33.738Z,75.14
2019-03-19T03:50:03.319Z,73.90
2019-03-19T03:52:32.837Z,71.11
2019-03-19T03:55:02.423Z,69.89
2019-03-19T03:57:31.997Z,69.00
2019-03-19T04:00:01.582Z,68.45
2019-03-19T04:02:31.093Z,68.77
2019-03-19T04:05:00.641Z,68.81
2019-03-19T04:07:30.177Z,68.64
2019-03-19T04:09:59.725Z,68.44
2019-03-19T04:12:29.251Z,67.53
2019-03-19T04:14:58.833Z,67.10
2019-03-19T04:17:28.386Z,67.49
2019-03-19T04:19:57.944Z,67.98
2019-03-19T04:22:27.471Z,67.83
2019-03-19T04:24:57.050Z,67.14
2019-03-19T04:27:26.586Z,67.58
2019-03-19T04:29:56.164Z,67.23
2019-03-19T04:32:25.640Z,67.53
2019-03-19T04:34:55.191Z,67.28
2019-03-19T04:37:24.716Z,67.35
2019-03-19T04:39:54.256Z,67.68
2019-03-19T04:42:23.784Z,67.99
2019-03-19T04:44:53.333Z,67.18
2019-03-19T04:47:22.868Z,66.30
2019-03-19T04:49:52.401Z,65.56
2019-03-19T04:52:21.987Z,65.65
2019-03-19T04:54:51.544Z,64.78
2019-03-19T04:57:26.830Z,64.58
2019-03-19T04:59:52.343Z,64.48
2019-03-19T05:02:21.858Z,64.19
2019-03-19T05:04:51.395Z,61.45
2019-03-19T05:07:21.311Z,57.91
2019-03-19T05:09:50.842Z,55.98
2019-03-19T05:12:20.364Z,54.33
2019-03-19T05:14:49.897Z,53.75
2019-03-19T05:17:19.412Z,51.95
2019-03-19T05:19:48.960Z,51.74
2019-03-19T05:22:18.495Z,51.14
2019-03-19T05:24:48.187Z,49.96
2019-03-19T05:27:17.794Z,49.42
2019-03-19T05:29:47.344Z,48.25
2019-03-19T05:32:16.872Z,47.46
2019-03-19T05:34:46.413Z,46.46
2019-03-19T05:37:15.936Z,46.14
2019-03-19T05:39:45.488Z,45.14
2019-03-19T05:42:15.038Z,44.25
2019-03-19T05:44:44.586Z,43.26
2019-03-19T05:47:14.108Z,42.38
2019-03-19T05:49:43.658Z,42.90
2019-03-19T05:52:13.186Z,41.38
2019-03-19T05:54:42.727Z,39.71
2019-03-19T05:57:12.294Z,41.03
2019-03-19T05:59:41.902Z,41.99
2019-03-19T06:02:11.456Z,41.14
2019-03-19T06:04:40.994Z,40.49
2019-03-19T06:07:10.526Z,39.35
2019-03-19T06:09:40.064Z,38.86
2019-03-19T06:12:09.618Z,39.40
2019-03-19T06:14:39.148Z,37.49
2019-03-19T06:17:08.712Z,37.95
2019-03-19T06:19:38.253Z,38.62
2019-03-19T06:22:07.844Z,36.77
2019-03-19T06:24:37.359Z,38.63
2019-03-19T06:27:06.881Z,39.32
2019-03-19T06:29:36.424Z,38.96
2019-03-19T06:32:06.014Z,39.19
2019-03-19T06:34:35.534Z,38.60
2019-03-19T06:37:05.093Z,40.50
2019-03-19T06:39:34.614Z,39.53
2019-03-19T06:42:04.150Z,42.18
2019-03-19T06:44:33.680Z,43.17
2019-03-19T06:47:03.233Z,42.52
2019-03-19T06:49:32.758Z,43.37
2019-03-19T06:52:02.284Z,43.61
2019-03-19T06:54:31.815Z,43.19
2019-03-19T06:57:01.372Z,42.85
2019-03-19T06:59:30.888Z,41.14
2019-03-19T07:02:00.421Z,42.55
2019-03-19T07:04:29.950Z,44.00
2019-03-19T07:06:59.496Z,44.29
2019-03-19T07:09:29.028Z,45.37
2019-03-19T07:11:58.562Z,45.08
2019-03-19T07:14:28.087Z,44.36
2019-03-19T07:16:57.620Z,43.32
2019-03-19T07:19:27.191Z,43.68
2019-03-19T07:21:56.721Z,44.72
2019-03-19T07:24:26.270Z,44.15
2019-03-19T07:26:55.818Z,43.57
2019-03-19T07:29:25.340Z,43.58
2019-03-19T07:31:54.868Z,44.61
2019-03-19T07:34:24.403Z,44.34
2019-03-19T07:36:53.987Z,45.41
2019-03-19T07:39:23.513Z,44.71
2019-03-19T07:41:53.049Z,45.14
2019-03-19T07:44:22.590Z,45.91
2019-03-19T07:46:52.141Z,45.28
2019-03-19T07:49:21.666Z,45.60
2019-03-19T07:51:53.375Z,45.69
2019-03-19T07:54:22.554Z,46.06
2019-03-19T07:56:52.165Z,46.19
2019-03-19T07:59:21.707Z,45.55
2019-03-19T08:01:51.261Z,44.83
2019-03-19T08:04:20.786Z,45.65
2019-03-19T08:06:50.330Z,45.63
2019-03-19T08:09:19.921Z,46.68
2019-03-19T08:11:49.451Z,45.67
2019-03-19T08:14:18.970Z,45.32
2019-03-19T08:16:48.586Z,45.63
2019-03-19T08:19:18.129Z,45.23
2019-03-19T08:21:47.676Z,45.11
2019-03-19T08:24:17.304Z,44.57
2019-03-19T08:26:49.121Z,45.11
2019-03-19T08:29:19.009Z,45.13
2019-03-19T08:31:48.817Z,45.82
2019-03-19T08:34:18.344Z,45.79
2019-03-19T08:36:47.901Z,44.54
2019-03-19T08:39:17.581Z,45.42
2019-03-19T08:41:47.223Z,43.92
2019-03-19T08:44:16.750Z,44.24
2019-03-19T08:46:46.289Z,43.57
2019-03-19T08:49:15.821Z,42.79
2019-03-19T08:51:45.546Z,42.86
2019-03-19T08:54:15.222Z,42.69
2019-03-19T08:56:44.770Z,42.03
2019-03-19T08:59:14.356Z,42.42
2019-03-19T09:01:43.916Z,42.47
2019-03-19T09:04:13.442Z,43.56
2019-03-19T09:06:43.001Z,43.17
2019-03-19T09:09:12.539Z,43.81
2019-03-19T09:11:42.126Z,43.63
2019-03-19T09:14:11.660Z,41.55
2019-03-19T09:16:41.192Z,41.18
2019-03-19T09:19:10.801Z,42.20
2019-03-19T09:21:40.350Z,41.87
2019-03-19T09:24:09.893Z,41.92
2019-03-19T09:26:39.448Z,42.34
2019-03-19T09:29:16.947Z,41.13
2019-03-19T09:31:40.256Z,41.63
2019-03-19T09:34:09.797Z,41.49
2019-03-19T09:36:39.348Z,41.86
2019-03-19T09:39:09.533Z,39.87
2019-03-19T09:41:39.063Z,39.62
2019-03-19T09:44:08.624Z,38.94
2019-03-19T09:46:38.173Z,40.06
2019-03-19T09:49:07.747Z,39.07
2019-03-19T09:51:37.273Z,39.02
2019-03-19T09:54:06.840Z,39.10
2019-03-19T09:56:36.407Z,37.17
2019-03-19T09:59:05.955Z,38.30
2019-03-19T10:01:35.495Z,37.43
2019-03-19T10:04:05.058Z,37.40
2019-03-19T10:06:34.608Z,37.79
2019-03-19T10:09:04.917Z,36.75
2019-03-19T10:11:34.473Z,37.05
2019-03-19T10:14:04.109Z,36.87
2019-03-19T10:16:33.928Z,36.73
2019-03-19T10:19:03.465Z,36.11
2019-03-19T10:21:33.018Z,36.43
2019-03-19T10:24:02.618Z,37.29
2019-03-19T10:26:32.344Z,37.16
2019-03-19T10:29:01.896Z,36.67
2019-03-19T10:31:31.426Z,36.18
2019-03-19T10:34:00.973Z,34.97
2019-03-19T10:36:30.508Z,34.74
2019-03-19T10:39:00.082Z,35.39
2019-03-19T10:41:29.613Z,35.29
2019-03-19T10:43:59.151Z,35.18
2019-03-19T10:46:28.680Z,35.77
2019-03-19T10:48:58.348Z,36.30
2019-03-19T10:51:27.918Z,36.77
2019-03-19T10:53:57.559Z,35.38
2019-03-19T10:56:27.084Z,34.26
2019-03-19T10:58:56.662Z,33.81
2019-03-19T11:01:26.200Z,33.93
2019-03-19T11:03:55.763Z,34.64
2019-03-19T11:06:25.318Z,34.93
2019-03-19T11:08:55.004Z,36.97
2019-03-19T11:11:24.608Z,37.70
2019-03-19T11:13:54.144Z,36.84
2019-03-19T11:16:23.661Z,34.68
2019-03-19T11:18:53.327Z,31.65
2019-03-19T11:21:22.993Z,30.72
2019-03-19T11:23:52.559Z,31.30
2019-03-19T11:26:22.218Z,30.95
2019-03-19T11:28:51.775Z,31.23
2019-03-19T11:31:21.539Z,30.24
2019-03-19T11:33:51.056Z,30.50
2019-03-19T11:36:20.573Z,29.84
2019-03-19T11:38:50.145Z,29.92
2019-03-19T11:41:19.704Z,28.78
2019-03-19T11:43:49.288Z,27.97
2019-03-19T11:46:18.972Z,29.73
2019-03-19T11:48:48.589Z,30.04
2019-03-19T11:51:18.134Z,30.05
2019-03-19T11:53:47.686Z,29.48
2019-03-19T11:56:17.305Z,29.76
2019-03-19T11:58:49.654Z,29.53
2019-03-19T12:01:19.237Z,30.33
2019-03-19T12:03:48.791Z,29.88
2019-03-19T12:06:18.320Z,30.15
2019-03-19T12:08:48.045Z,29.74
2019-03-19T12:11:17.737Z,29.86
2019-03-19T12:13:47.353Z,29.99
2019-03-19T12:16:16.916Z,30.02
2019-03-19T12:18:48.318Z,30.79
2019-03-19T12:21:17.852Z,31.51
2019-03-19T12:23:47.419Z,30.39
2019-03-19T12:26:16.971Z,30.20
2019-03-19T12:28:46.564Z,29.91
2019-03-19T12:31:16.046Z,29.89
2019-03-19T12:33:45.584Z,29.49
2019-03-19T12:36:15.194Z,29.95
2019-03-19T12:38:44.726Z,30.18
2019-03-19T12:41:14.296Z,30.98
2019-03-19T12:43:43.840Z,33.66
2019-03-19T12:46:13.504Z,34.89
2019-03-19T12:48:43.024Z,35.77
2019-03-19T12:51:12.555Z,38.17
2019-03-19T12:53:42.093Z,37.85
2019-03-19T12:56:11.643Z,38.73
2019-03-19T12:58:41.228Z,38.33
2019-03-19T13:01:10.990Z,39.02
2019-03-19T13:03:40.492Z,39.33
2019-03-19T13:06:10.132Z,40.15
2019-03-19T13:08:39.636Z,40.74
2019-03-19T13:11:09.149Z,40.99
2019-03-19T13:13:40.904Z,41.42
2019-03-19T13:16:10.014Z,42.24
2019-03-19T13:18:39.567Z,42.17
2019-03-19T13:21:09.087Z,41.99
2019-03-19T13:23:38.658Z,42.98
2019-03-19T13:26:08.211Z,42.91
2019-03-19T13:28:37.756Z,43.63
2019-03-19T13:31:07.347Z,43.52
2019-03-19T13:33:36.897Z,43.46
2019-03-19T13:36:06.434Z,43.59
2019-03-19T13:38:35.972Z,43.52
2019-03-19T13:41:05.501Z,44.18
2019-03-19T13:43:35.056Z,44.85
2019-03-19T13:46:04.614Z,44.21
2019-03-19T13:48:34.138Z,45.07
2019-03-19T13:51:03.656Z,45.36
2019-03-19T13:53:33.294Z,45.63
2019-03-19T13:56:02.845Z,45.63
2019-03-19T13:58:32.396Z,45.95
2019-03-19T14:01:01.912Z,45.04
2019-03-19T14:03:42.246Z,45.01
2019-03-19T14:06:22.309Z,44.95
2019-03-19T14:08:51.840Z,45.27
2019-03-19T14:11:21.362Z,45.23
2019-03-19T14:13:51.373Z,45.20
2019-03-19T14:16:49.314Z,44.70
2019-03-19T14:20:16.944Z,44.97
2019-03-19T14:23:28.132Z,45.34
2019-03-19T14:26:36.428Z,45.49
2019-03-19T14:29:09.747Z,45.23
2019-03-19T14:32:20.621Z,45.92
2019-03-19T14:35:39.782Z,46.67
2019-03-19T14:38:17.724Z,46.27
2019-03-19T14:41:17.601Z,46.50
2019-03-19T14:43:49.461Z,46.86
2019-03-19T14:46:19.005Z,47.13
2019-03-19T14:48:48.535Z,47.13
2019-03-19T14:51:18.068Z,47.92
2019-03-19T14:53:47.611Z,47.72
2019-03-19T14:56:17.182Z,47.97
2019-03-19T14:58:46.703Z,48.35
2019-03-19T15:01:19.624Z,49.00
2019-03-19T15:03:47.520Z,47.90
2019-03-19T15:06:17.066Z,47.85
2019-03-19T15:08:46.584Z,47.84
2019-03-19T15:11:16.181Z,48.43
2019-03-19T15:13:45.728Z,48.37
2019-03-19T15:17:04.741Z,48.32
2019-03-19T15:20:07.075Z,48.48
2019-03-19T15:22:58.273Z,49.57
2019-03-19T15:25:50.242Z,49.28
2019-03-19T15:28:19.806Z,49.71
2019-03-19T15:30:49.330Z,49.44
2019-03-19T15:33:36.216Z,50.03
2019-03-19T15:36:05.781Z,49.76
2019-03-19T15:38:35.331Z,50.03
2019-03-19T15:41:04.871Z,49.91
2019-03-19T15:44:01.368Z,50.38
2019-03-19T15:46:30.928Z,51.40
2019-03-19T15:49:00.661Z,51.27
2019-03-19T15:51:30.187Z,51.99
2019-03-19T15:53:59.756Z,52.10
2019-03-19T15:56:29.354Z,52.25
2019-03-19T15:58:58.972Z,55.30
2019-03-19T16:01:28.497Z,58.19
2019-03-19T16:03:58.143Z,60.42
2019-03-19T16:06:27.736Z,62.27
2019-03-19T16:08:57.331Z,63.90
2019-03-19T16:11:26.902Z,64.70
2019-03-19T16:13:56.440Z,65.37
2019-03-19T16:16:25.998Z,66.29
2019-03-19T16:18:55.526Z,66.91
2019-03-19T16:21:25.090Z,66.89
2019-03-19T16:23:54.637Z,67.26
2019-03-19T16:26:24.171Z,67.72
2019-03-19T16:29:06.588Z,67.91
2019-03-19T16:31:37.430Z,68.46
2019-03-19T16:34:12.735Z,69.12
2019-03-19T16:37:06.216Z,69.81
2019-03-19T16:39:44.035Z,70.46
2019-03-19T16:42:17.178Z,70.82
2019-03-19T16:44:57.229Z,71.79
2019-03-19T16:47:31.370Z,72.52
2019-03-19T16:50:05.893Z,73.11
2019-03-19T16:53:20.777Z,73.67
2019-03-19T16:55:52.354Z,74.17
2019-03-19T16:58:21.886Z,74.95
2019-03-19T17:00:51.438Z,75.21
2019-03-19T17:03:21.160Z,76.25
2019-03-19T17:05:50.877Z,76.32
2019-03-19T17:08:20.458Z,76.46
2019-03-19T17:10:49.990Z,77.24
2019-03-19T17:13:19.559Z,77.29
2019-03-19T17:15:49.118Z,77.44
2019-03-19T17:18:18.750Z,77.63
2019-03-19T17:20:48.291Z,77.72
2019-03-19T17:23:17.865Z,78.14
2019-03-19T17:25:47.467Z,77.84
2019-03-19T17:28:22.436Z,77.67
2019-03-19T17:30:48.242Z,78.24
2019-03-19T17:33:17.787Z,78.01
2019-03-19T17:35:47.371Z,78.58
2019-03-19T17:38:16.944Z,79.20
2019-03-19T17:40:46.496Z,79.19
2019-03-19T17:43:16.078Z,79.34
2019-03-19T17:45:45.614Z,79.67
2019-03-19T17:48:16.351Z,79.66
2019-03-19T17:50:46.702Z,80.18
2019-03-19T17:53:16.251Z,80.59
2019-03-19T17:55:55.991Z,80.74
2019-03-19T17:58:25.553Z,81.02
2019-03-19T18:00:55.206Z,81.28
2019-03-19T18:03:24.774Z,81.25
2019-03-19T18:05:54.295Z,81.45
2019-03-19T18:08:23.856Z,81.92
2019-03-19T18:10:53.399Z,82.10
2019-03-19T18:13:22.950Z,82.27
2019-03-19T18:15:52.493Z,82.54
2019-03-19T18:18:22.405Z,82.55
2019-03-19T18:20:52.006Z,82.81
2019-03-19T18:23:21.543Z,83.17
2019-03-19T18:25:51.100Z,83.71
2019-03-19T18:28:20.722Z,84.06
2019-03-19T18:30:50.275Z,83.79
2019-03-19T18:33:19.821Z,83.45
2019-03-19T18:35:49.366Z,83.29
2019-03-19T18:38:18.919Z,83.47
2019-03-19T18:40:48.527Z,83.19
2019-03-19T18:43:18.089Z,82.79
2019-03-19T18:45:47.649Z,82.78
2019-03-19T18:48:17.227Z,82.93
2019-03-19T18:50:46.742Z,82.76
2019-03-19T18:53:16.290Z,82.63
2019-03-19T18:55:46.792Z,82.60
2019-03-19T18:58:16.447Z,82.55
2019-03-19T19:00:45.998Z,82.48
2019-03-19T19:03:15.515Z,82.32
2019-03-19T19:05:45.149Z,82.14
2019-03-19T19:08:14.728Z,82.15
2019-03-19T19:10:44.275Z,82.52
2019-03-19T19:13:13.806Z,82.20
2019-03-19T19:15:43.361Z,82.08
2019-03-19T19:18:35.569Z,81.65
2019-03-19T19:21:52.377Z,81.63
2019-03-19T19:24:57.632Z,81.39
2019-03-19T19:27:44.002Z,81.45
2019-03-19T19:30:15.864Z,81.47
2019-03-19T19:32:45.406Z,81.58
2019-03-19T19:35:15.047Z,81.57
2019-03-19T19:37:44.624Z,81.51
2019-03-19T19:40:14.913Z,81.60
2019-03-19T19:42:44.464Z,81.64
2019-03-19T19:45:16.212Z,81.46
2019-03-19T19:47:48.208Z,80.99
2019-03-19T19:50:19.930Z,81.02
2019-03-19T19:52:49.661Z,81.36
2019-03-19T19:55:20.121Z,81.50
2019-03-19T19:57:53.268Z,81.18
2019-03-19T20:00:22.806Z,80.67
2019-03-19T20:02:52.425Z,80.79
2019-03-19T20:05:21.989Z,80.66
2019-03-19T20:07:51.526Z,80.50
2019-03-19T20:10:21.110Z,80.66
2019-03-19T20:12:50.734Z,80.68
2019-03-19T20:15:20.299Z,81.01
2019-03-19T20:17:49.847Z,81.45
2019-03-19T20:20:19.526Z,81.48
2019-03-19T20:22:49.088Z,82.04
2019-03-19T20:25:19.015Z,82.36
2019-03-19T20:27:48.455Z,83.02
2019-03-19T20:30:19.048Z,82.86
2019-03-19T20:32:48.606Z,83.20
2019-03-19T20:35:18.175Z,83.89
2019-03-19T20:37:47.725Z,83.98
2019-03-19T20:40:17.265Z,84.04
2019-03-19T20:42:46.816Z,84.71
2019-03-19T20:45:16.547Z,84.78
2019-03-19T20:47:46.087Z,85.05
2019-03-19T20:50:21.016Z,85.21
2019-03-19T20:52:50.578Z,85.12
2019-03-19T20:55:20.125Z,85.28
2019-03-19T20:57:49.677Z,85.08
2019-03-19T21:00:19.257Z,85.39
2019-03-19T21:02:48.876Z,85.85
2019-03-19T21:05:18.418Z,86.48
2019-03-19T21:07:47.973Z,86.54
2019-03-19T21:12:49.857Z,86.16
2019-03-19T21:15:21.306Z,86.07
2019-03-19T21:17:50.878Z,85.76
2019-03-19T21:20:20.565Z,85.43
2019-03-19T21:22:50.149Z,85.23
2019-03-19T21:25:19.695Z,84.44
2019-03-19T21:27:49.328Z,84.51
2019-03-19T21:30:18.872Z,84.25
2019-03-19T21:32:48.412Z,84.27
2019-03-19T21:35:20.834Z,84.14
2019-03-19T21:37:50.537Z,84.15
2019-03-19T21:40:20.131Z,83.73
2019-03-19T21:42:49.663Z,83.78
2019-03-19T21:45:19.215Z,83.55
2019-03-19T21:47:48.784Z,83.36
2019-03-19T21:50:18.330Z,83.38
2019-03-19T21:52:47.926Z,83.61
2019-03-19T21:55:17.450Z,83.64
2019-03-19T21:57:47.109Z,83.68
2019-03-19T22:00:17.394Z,83.71
2019-03-19T22:02:46.967Z,83.90
2019-03-19T22:05:16.482Z,84.16
2019-03-19T22:07:46.038Z,84.29
2019-03-19T22:10:15.723Z,84.48
2019-03-19T22:12:45.288Z,84.61
2019-03-19T22:15:16.395Z,84.62
2019-03-19T22:17:45.942Z,84.89
2019-03-19T22:20:15.491Z,84.79
2019-03-19T22:22:45.030Z,84.60
2019-03-19T22:25:14.643Z,84.13
2019-03-19T22:27:44.210Z,83.83
2019-03-19T22:30:15.244Z,83.67
2019-03-19T22:32:44.911Z,83.59
2019-03-19T22:35:14.473Z,83.33
2019-03-19T22:37:44.032Z,83.42
2019-03-19T22:40:14.466Z,82.88
2019-03-19T22:42:44.024Z,82.74
2019-03-19T22:45:14.545Z,82.88
2019-03-19T22:47:44.080Z,82.45
2019-03-19T22:50:14.182Z,82.05
2019-03-19T22:52:43.749Z,81.80
2019-03-19T22:55:13.369Z,81.56
2019-03-19T22:57:42.886Z,81.51
2019-03-19T23:00:37.319Z,83.02
2019-03-19T23:03:06.846Z,83.37
2019-03-19T23:05:36.391Z,83.87
2019-03-19T23:08:05.940Z,84.68
2019-03-19T23:10:35.584Z,84.58
2019-03-19T23:13:05.161Z,85.00
2019-03-19T23:15:34.704Z,84.74
2019-03-19T23:18:04.318Z,84.98
2019-03-19T23:20:33.875Z,85.27
2019-03-19T23:23:03.428Z,85.45
2019-03-19T23:25:32.971Z,85.84
2019-03-19T23:28:02.510Z,86.10
2019-03-19T23:30:32.049Z,86.32
2019-03-19T23:33:01.615Z,86.36
2019-03-19T23:35:31.163Z,86.23
2019-03-19T23:38:00.731Z,85.92
2019-03-19T23:40:30.276Z,85.71
2019-03-19T23:42:59.806Z,85.50
2019-03-19T23:45:29.336Z,85.30
2019-03-19T23:47:58.900Z,84.97
2019-03-19T23:50:28.441Z,85.25
2019-03-19T23:52:57.988Z,85.14
2019-03-19T23:55:27.511Z,84.56
2019-03-19T23:57:57.067Z,84.45
